Time;durP1;ratioP1;P1;durP2;ratioP2;P2;SDS_P1;SDS_P2;PMS_P1;PMS_P2;Temp;Humidity;BMP_temperature;BMP_pressure;BME280_temperature;BME280_humidity;BME280_pressure;Samples;Min_cycle;Max_cycle;Signal;HPM_P1;HPM_P2
2022/11/08 00:02:02;;;;;;;;;;;;;;;;;;5069968;28;1043;-77
2022/11/08 00:04:28;;;;;;;;;;;;;;;;;;5057915;28;1977;-77
2022/11/08 00:15:09;;;;;;;;;;;;;;;;;;5055919;28;1465;-78
2022/11/08 00:17:35;;;;;;;;;;;;;;;;;;5056014;28;1486;-78
2022/11/08 00:20:02;;;;;;;;;;;;;;;;;;5055339;28;1419;-78
2022/11/08 00:22:29;;;;;;;;;;;;;;;;;;5085806;28;1333;-78
2022/11/08 00:24:55;;;;;;;;;;;;;;;;;;5075606;28;1144;-77
2022/11/08 00:27:22;;;;;;;;;;;;;;;;;;5075271;28;1918;-77
2022/11/08 00:29:48;;;;;;;;;;;;;;;;;;5093442;28;1380;-78
2022/11/08 00:32:17;;;;;;;;;;;;;;;;;;5079214;28;1454;-77
2022/11/08 00:34:43;;;;;;;;;;;;;;;;;;5053334;28;1293;-77
2022/11/08 00:37:09;;;;;;;;;;;;;;;;;;5072801;28;1119;-78
2022/11/08 00:39:35;;;;;;;;;;;;;;;;;;5057929;28;1420;-77
2022/11/08 00:42:02;;;;;;;;;;;;;;;;;;5061293;28;1397;-76
2022/11/08 00:44:28;;;;;;;;;;;;;;;;;;5067415;28;818;-77
2022/11/08 00:46:57;;;;;;;;;;;;;;;;;;5049582;28;1992;-77
2022/11/08 00:49:25;;;;;;;;;;;;;;;;;;5048946;28;1424;-78
2022/11/08 00:51:51;;;;;;;;;;;;;;;;;;5077472;28;1380;-76
2022/11/08 00:54:18;;;;;;;;;;;;;;;;;;5087567;28;933;-77
2022/11/08 00:56:44;;;;;;;;;;;;;;;;;;5088311;28;1072;-76
2022/11/08 00:59:10;;;;;;;;;;;;;;;;;;5072669;28;1334;-78
2022/11/08 01:01:37;;;;;;;;;;;;;;;;;;5075122;28;2069;-79
2022/11/08 01:04:03;;;;;;;;;;;;;;;;;;5081982;28;2037;-76
2022/11/08 01:06:31;;;;;;;;;;;;;;;;;;5051568;28;1992;-76
2022/11/08 01:08:57;;;;;;;;;;;;;;;;;;5050665;28;1306;-77
2022/11/08 01:11:24;;;;;;;;;;;;;;;;;;5049367;28;1492;-76
2022/11/08 01:13:50;;;;;;;;;;;;;;;;;;5068025;28;1063;-77
2022/11/08 01:16:17;;;;;;;;;;;;;;;;;;5069247;28;937;-77
2022/11/08 01:18:44;;;;;;;;;;;;;;;;;;5070952;28;1388;-78
2022/11/08 01:21:10;;;;;;;;;;;;;;;;;;5071483;28;1396;-78
2022/11/08 01:23:38;;;;;;;;;;;;;;;;;;5050200;28;2263;-78
2022/11/08 01:26:05;;;;;;;;;;;;;;;;;;5069644;28;1914;-78
2022/11/08 01:28:31;;;;;;;;;;;;;;;;;;5053245;28;1419;-77
2022/11/08 01:30:57;;;;;;;;;;;;;;;;;;5077034;28;1412;-78
2022/11/08 01:33:23;;;;;;;;;;;;;;;;;;5069894;28;1227;-77
2022/11/08 01:35:50;;;;;;;;;;;;;;;;;;5071337;28;1087;-75
2022/11/08 01:38:16;;;;;;;;;;;;;;;;;;5090684;28;1286;-77
2022/11/08 01:40:44;;;;;;;;;;;;;;;;;;5083594;28;1458;-77
2022/11/08 01:43:40;;;;;;;;;;;;;;;;;;5070150;28;1257;-78
2022/11/08 01:46:37;;;;;;;;;;;;;;;;;;4992473;28;1914;-77
2022/11/08 01:49:18;;;;;;;;;;;;;;;;;;5067688;28;1385;-78
2022/11/08 01:51:46;;;;;;;;;;;;;;;;;;5085267;28;1405;-77
2022/11/08 01:54:14;;;;;;;;;;;;;;;;;;5090966;28;857;-77
2022/11/08 01:56:42;;;;;;;;;;;;;;;;;;5091272;28;1126;-75
2022/11/08 01:59:09;;;;;;;;;;;;;;;;;;5091147;28;1312;-77
2022/11/08 02:01:36;;;;;;;;;;;;;;;;;;5072577;28;1199;-76
2022/11/08 02:04:02;;;;;;;;;;;;;;;;;;5073196;28;1201;-77
2022/11/08 02:06:28;;;;;;;;;;;;;;;;;;5075103;28;1918;-77
2022/11/08 02:08:54;;;;;;;;;;;;;;;;;;5076395;28;1280;-77
2022/11/08 02:11:21;;;;;;;;;;;;;;;;;;5082339;28;1482;-78
2022/11/08 02:13:48;;;;;;;;;;;;;;;;;;5073849;28;1048;-77
2022/11/08 02:16:15;;;;;;;;;;;;;;;;;;5074749;28;872;-77
2022/11/08 02:18:41;;;;;;;;;;;;;;;;;;5074058;28;1293;-77
2022/11/08 02:21:09;;;;;;;;;;;;;;;;;;5083486;28;1332;-77
2022/11/08 02:23:44;;;;;;;;;;;;;;;;;;5093867;28;1056;-78
2022/11/08 02:26:11;;;;;;;;;;;;;;;;;;5094489;28;1914;-77
2022/11/08 02:28:38;;;;;;;;;;;;;;;;;;5094437;28;1330;-76
2022/11/08 02:31:04;;;;;;;;;;;;;;;;;;5065309;28;1471;-77
2022/11/08 02:33:31;;;;;;;;;;;;;;;;;;5073527;28;980;-78
2022/11/08 02:35:57;;;;;;;;;;;;;;;;;;5056489;28;1275;-78
2022/11/08 02:38:24;;;;;;;;;;;;;;;;;;5055619;28;1336;-77
2022/11/08 02:40:52;;;;;;;;;;;;;;;;;;5081272;28;1448;-76
2022/11/08 02:43:18;;;;;;;;;;;;;;;;;;5093417;28;937;-77
2022/11/08 02:45:44;;;;;;;;;;;;;;;;;;5075999;28;1116;-77
2022/11/08 02:48:11;;;;;;;;;;;;;;;;;;5081179;28;1914;-78
2022/11/08 02:50:38;;;;;;;;;;;;;;;;;;5056168;28;1275;-75
2022/11/08 02:53:04;;;;;;;;;;;;;;;;;;5073371;28;1235;-77
2022/11/08 02:55:31;;;;;;;;;;;;;;;;;;5055718;28;1227;-77
2022/11/08 02:57:59;;;;;;;;;;;;;;;;;;5086416;28;1439;-77
2022/11/08 03:00:25;;;;;;;;;;;;;;;;;;5094162;28;720;-77
2022/11/08 03:02:52;;;;;;;;;;;;;;;;;;5093062;28;1107;-76
2022/11/08 03:05:18;;;;;;;;;;;;;;;;;;5093789;28;1118;-78
2022/11/08 03:07:44;;;;;;;;;;;;;;;;;;5080832;28;1985;-78
2022/11/08 03:10:11;;;;;;;;;;;;;;;;;;5056298;28;1300;-78
2022/11/08 03:12:37;;;;;;;;;;;;;;;;;;5073483;28;1106;-77
2022/11/08 03:15:05;;;;;;;;;;;;;;;;;;5056259;28;1284;-76
2022/11/08 03:17:31;;;;;;;;;;;;;;;;;;5085917;28;1977;-77
2022/11/08 03:19:58;;;;;;;;;;;;;;;;;;5083265;28;1985;-77
2022/11/08 03:22:24;;;;;;;;;;;;;;;;;;5077120;28;1196;-76
2022/11/08 03:24:50;;;;;;;;;;;;;;;;;;5074046;28;814;-77
2022/11/08 03:27:18;;;;;;;;;;;;;;;;;;5073009;28;1911;-78
2022/11/08 03:29:44;;;;;;;;;;;;;;;;;;5073227;28;1264;-77
2022/11/08 03:32:11;;;;;;;;;;;;;;;;;;5072374;28;1064;-78
2022/11/08 03:34:38;;;;;;;;;;;;;;;;;;5084241;28;1408;-76
2022/11/08 03:37:04;;;;;;;;;;;;;;;;;;5093965;28;1067;-78
2022/11/08 03:39:30;;;;;;;;;;;;;;;;;;5075111;28;1404;-77
2022/11/08 03:41:58;;;;;;;;;;;;;;;;;;5092475;28;1063;-76
2022/11/08 03:44:24;;;;;;;;;;;;;;;;;;5082449;28;1490;-76
2022/11/08 03:46:51;;;;;;;;;;;;;;;;;;5072909;28;1906;-76
2022/11/08 03:49:19;;;;;;;;;;;;;;;;;;5054715;28;1582;-77
2022/11/08 03:51:45;;;;;;;;;;;;;;;;;;5073121;28;948;-76
2022/11/08 03:54:11;;;;;;;;;;;;;;;;;;5072743;28;1619;-78
2022/11/08 03:56:38;;;;;;;;;;;;;;;;;;5072749;28;806;-77
2022/11/08 03:59:04;;;;;;;;;;;;;;;;;;5072686;28;1805;-77
2022/11/08 04:01:30;;;;;;;;;;;;;;;;;;5072364;28;1080;-77
2022/11/08 04:03:56;;;;;;;;;;;;;;;;;;5056112;28;1416;-77
2022/11/08 04:06:24;;;;;;;;;;;;;;;;;;5065484;28;1992;-77
2022/11/08 04:08:50;;;;;;;;;;;;;;;;;;5066098;28;1987;-77
2022/11/08 04:16:44;;;;;;;;;;;;;;;;;;5073208;28;794;-77
2022/11/08 04:21:56;;;;;;;;;;;;;;;;;;5071534;28;1008;-75
2022/11/08 04:24:22;;;;;;;;;;;;;;;;;;5072021;28;1447;-77
2022/11/08 04:26:48;;;;;;;;;;;;;;;;;;5053930;28;1913;-77
2022/11/08 04:29:14;;;;;;;;;;;;;;;;;;5071813;28;1384;-77
2022/11/08 04:31:41;;;;;;;;;;;;;;;;;;5065895;28;1480;-76
2022/11/08 04:34:07;;;;;;;;;;;;;;;;;;5064663;28;1498;-75
2022/11/08 04:36:33;;;;;;;;;;;;;;;;;;5045821;28;1598;-77
2022/11/08 04:39:01;;;;;;;;;;;;;;;;;;5052229;28;1386;-77
2022/11/08 04:41:27;;;;;;;;;;;;;;;;;;5053311;28;1146;-77
2022/11/08 04:43:54;;;;;;;;;;;;;;;;;;5070326;28;1451;-77
2022/11/08 04:46:21;;;;;;;;;;;;;;;;;;5063144;28;1147;-77
2022/11/08 04:48:49;;;;;;;;;;;;;;;;;;5045563;28;1978;-77
2022/11/08 04:51:16;;;;;;;;;;;;;;;;;;5063112;28;1422;-76
2022/11/08 04:53:42;;;;;;;;;;;;;;;;;;5074355;28;1466;-81
2022/11/08 04:56:10;;;;;;;;;;;;;;;;;;5074987;28;1173;-80
2022/11/08 04:58:37;;;;;;;;;;;;;;;;;;5075973;28;1513;-80
2022/11/08 05:01:04;;;;;;;;;;;;;;;;;;5073210;28;1372;-82
2022/11/08 05:03:30;;;;;;;;;;;;;;;;;;5075829;28;1231;-81
2022/11/08 05:05:59;;;;;;;;;;;;;;;;;;5057002;28;1411;-82
2022/11/08 05:08:26;;;;;;;;;;;;;;;;;;5055686;28;1975;-82
2022/11/08 05:10:52;;;;;;;;;;;;;;;;;;5077826;28;1095;-83
2022/11/08 05:13:19;;;;;;;;;;;;;;;;;;5080550;28;1032;-82
2022/11/08 05:15:46;;;;;;;;;;;;;;;;;;5078383;28;1466;-83
2022/11/08 05:18:12;;;;;;;;;;;;;;;;;;5082293;28;1381;-83
2022/11/08 05:23:25;;;;;;;;;;;;;;;;;;5092522;28;1265;-82
2022/11/08 05:25:51;;;;;;;;;;;;;;;;;;5082725;28;1247;-82
2022/11/08 05:28:19;;;;;;;;;;;;;;;;;;5078498;28;1918;-80
2022/11/08 05:30:51;;;;;;;;;;;;;;;;;;5073409;28;1376;-81
2022/11/08 05:33:17;;;;;;;;;;;;;;;;;;5054359;28;1337;-82
2022/11/08 05:35:43;;;;;;;;;;;;;;;;;;5084546;28;1395;-81
2022/11/08 05:38:09;;;;;;;;;;;;;;;;;;5064433;28;1501;-82
2022/11/08 05:43:04;;;;;;;;;;;;;;;;;;5065446;28;1458;-77
2022/11/08 05:45:32;;;;;;;;;;;;;;;;;;5054866;28;949;-78
2022/11/08 05:48:02;;;;;;;;;;;;;;;;;;5053859;28;1911;-78
2022/11/08 05:50:28;;;;;;;;;;;;;;;;;;5036883;28;1388;-78
2022/11/08 05:53:04;;;;;;;;;;;;;;;;;;5053638;28;861;-76
2022/11/08 05:55:30;;;;;;;;;;;;;;;;;;5054685;28;660;-76
2022/11/08 05:57:56;;;;;;;;;;;;;;;;;;5054295;28;1412;-77
2022/11/08 06:00:23;;;;;;;;;;;;;;;;;;5054443;28;1141;-77
2022/11/08 06:02:51;;;;;;;;;;;;;;;;;;5053944;28;1452;-78
2022/11/08 06:05:17;;;;;;;;;;;;;;;;;;5053130;28;1317;-77
2022/11/08 06:07:43;;;;;;;;;;;;;;;;;;5052884;28;1898;-77
2022/11/08 06:10:09;;;;;;;;;;;;;;;;;;5054249;28;1052;-77
2022/11/08 06:12:36;;;;;;;;;;;;;;;;;;5052713;28;1427;-77
2022/11/08 06:15:03;;;;;;;;;;;;;;;;;;5054041;28;1068;-77
2022/11/08 06:17:29;;;;;;;;;;;;;;;;;;5054109;28;1055;-77
2022/11/08 06:19:57;;;;;;;;;;;;;;;;;;5054268;28;838;-78
2022/11/08 06:22:23;;;;;;;;;;;;;;;;;;5049287;28;1436;-77
2022/11/08 06:24:49;;;;;;;;;;;;;;;;;;5051007;28;1696;-77
2022/11/08 06:27:16;;;;;;;;;;;;;;;;;;5051588;28;1986;-77
2022/11/08 06:29:42;;;;;;;;;;;;;;;;;;5052363;28;1251;-76
2022/11/08 06:32:09;;;;;;;;;;;;;;;;;;5051854;28;1397;-78
2022/11/08 06:34:35;;;;;;;;;;;;;;;;;;5048396;28;1794;-78
2022/11/08 06:37:03;;;;;;;;;;;;;;;;;;5049012;28;1170;-77
2022/11/08 06:39:30;;;;;;;;;;;;;;;;;;5052345;28;862;-77
2022/11/08 06:41:56;;;;;;;;;;;;;;;;;;5044051;28;1621;-77
2022/11/08 06:44:22;;;;;;;;;;;;;;;;;;5032943;28;1742;-76
2022/11/08 06:46:48;;;;;;;;;;;;;;;;;;5067282;28;1599;-77
2022/11/08 06:49:15;;;;;;;;;;;;;;;;;;5051640;28;1922;-77
2022/11/08 06:51:41;;;;;;;;;;;;;;;;;;5049353;28;1877;-76
2022/11/08 06:54:08;;;;;;;;;;;;;;;;;;5064964;28;1446;-77
2022/11/08 06:56:35;;;;;;;;;;;;;;;;;;5033453;28;946;-77
2022/11/08 06:59:01;;;;;;;;;;;;;;;;;;5036008;28;1417;-76
2022/11/08 07:01:27;;;;;;;;;;;;;;;;;;5051281;28;1516;-77
2022/11/08 07:03:53;;;;;;;;;;;;;;;;;;5053159;28;1069;-77
2022/11/08 07:06:19;;;;;;;;;;;;;;;;;;5053237;28;1021;-77
2022/11/08 07:08:46;;;;;;;;;;;;;;;;;;5052226;28;1964;-77
2022/11/08 07:11:13;;;;;;;;;;;;;;;;;;5050692;28;1875;-76
2022/11/08 07:13:39;;;;;;;;;;;;;;;;;;5052417;28;1050;-77
2022/11/08 07:16:06;;;;;;;;;;;;;;;;;;5051768;28;1145;-77
2022/11/08 07:18:32;;;;;;;;;;;;;;;;;;5052947;28;1067;-77
2022/11/08 07:20:58;;;;;;;;;;;;;;;;;;5052777;28;1414;-76
2022/11/08 07:23:25;;;;;;;;;;;;;;;;;;5051494;28;1408;-77
2022/11/08 07:25:51;;;;;;;;;;;;;;;;;;5052878;28;1055;-77
2022/11/08 07:28:18;;;;;;;;;;;;;;;;;;5052165;28;1910;-77
2022/11/08 07:30:45;;;;;;;;;;;;;;;;;;5053238;28;1412;-77
2022/11/08 07:33:11;;;;;;;;;;;;;;;;;;5050770;28;1180;-77
2022/11/08 07:35:37;;;;;;;;;;;;;;;;;;5051431;28;1437;-77
2022/11/08 07:38:03;;;;;;;;;;;;;;;;;;5052847;28;775;-77
2022/11/08 07:40:30;;;;;;;;;;;;;;;;;;5052797;28;1344;-77
2022/11/08 07:42:57;;;;;;;;;;;;;;;;;;5051796;28;1051;-77
2022/11/08 07:45:24;;;;;;;;;;;;;;;;;;5052731;28;790;-77
2022/11/08 07:47:56;;;;;;;;;;;;;;;;;;5052296;28;1906;-76
2022/11/08 07:50:22;;;;;;;;;;;;;;;;;;5047516;28;1333;-76
2022/11/08 07:52:49;;;;;;;;;;;;;;;;;;5032124;28;1342;-76
2022/11/08 07:55:15;;;;;;;;;;;;;;;;;;5032610;28;1096;-77
2022/11/08 07:57:41;;;;;;;;;;;;;;;;;;5032117;28;870;-77
2022/11/08 08:00:08;;;;;;;;;;;;;;;;;;5032306;28;1073;-77
2022/11/08 08:02:39;;;;;;;;;;;;;;;;;;5047381;28;1475;-77
2022/11/08 08:05:05;;;;;;;;;;;;;;;;;;5051872;28;812;-77
2022/11/08 08:07:32;;;;;;;;;;;;;;;;;;5051968;28;1007;-77
2022/11/08 08:09:58;;;;;;;;;;;;;;;;;;5051744;28;1973;-77
2022/11/08 08:12:24;;;;;;;;;;;;;;;;;;5050639;28;1574;-77
2022/11/08 08:14:50;;;;;;;;;;;;;;;;;;5051863;28;949;-76
2022/11/08 08:17:16;;;;;;;;;;;;;;;;;;5050746;28;1160;-76
2022/11/08 08:19:44;;;;;;;;;;;;;;;;;;5051874;28;1166;-76
2022/11/08 08:22:10;;;;;;;;;;;;;;;;;;5050746;28;1451;-76
2022/11/08 08:24:36;;;;;;;;;;;;;;;;;;5050703;28;1178;-77
2022/11/08 08:27:03;;;;;;;;;;;;;;;;;;5052043;28;1056;-78
2022/11/08 08:29:29;;;;;;;;;;;;;;;;;;5052555;28;1922;-78
2022/11/08 08:31:55;;;;;;;;;;;;;;;;;;5046198;28;1488;-77
2022/11/08 08:34:21;;;;;;;;;;;;;;;;;;5032556;28;1056;-78
2022/11/08 08:36:49;;;;;;;;;;;;;;;;;;5032375;28;956;-77
2022/11/08 08:39:15;;;;;;;;;;;;;;;;;;5031942;28;1044;-77
2022/11/08 08:41:41;;;;;;;;;;;;;;;;;;5044737;28;1453;-77
2022/11/08 08:44:07;;;;;;;;;;;;;;;;;;5050624;28;1345;-77
2022/11/08 08:46:34;;;;;;;;;;;;;;;;;;5048798;28;1479;-77
2022/11/08 08:49:00;;;;;;;;;;;;;;;;;;5050181;28;1883;-78
2022/11/08 08:51:26;;;;;;;;;;;;;;;;;;5050327;28;1397;-77
2022/11/08 08:53:54;;;;;;;;;;;;;;;;;;5051439;28;973;-77
2022/11/08 08:56:20;;;;;;;;;;;;;;;;;;5050086;28;1166;-78
2022/11/08 08:58:48;;;;;;;;;;;;;;;;;;5051602;28;798;-78
2022/11/08 09:01:15;;;;;;;;;;;;;;;;;;5049555;28;1490;-76
2022/11/08 09:03:41;;;;;;;;;;;;;;;;;;5052387;28;774;-76
2022/11/08 09:06:07;;;;;;;;;;;;;;;;;;5052121;28;782;-77
2022/11/08 09:08:33;;;;;;;;;;;;;;;;;;5051441;28;1969;-77
2022/11/08 09:11:01;;;;;;;;;;;;;;;;;;5053075;28;1415;-78
2022/11/08 09:13:29;;;;;;;;;;;;;;;;;;5052707;28;1060;-77
2022/11/08 09:15:55;;;;;;;;;;;;;;;;;;5052048;28;957;-78
2022/11/08 09:18:22;;;;;;;;;;;;;;;;;;5051296;28;1335;-77
2022/11/08 09:20:48;;;;;;;;;;;;;;;;;;5050777;28;1704;-77
2022/11/08 09:23:15;;;;;;;;;;;;;;;;;;5049082;28;1231;-78
2022/11/08 09:25:41;;;;;;;;;;;;;;;;;;5051449;28;1059;-77
2022/11/08 09:28:09;;;;;;;;;;;;;;;;;;5051327;28;1977;-78
2022/11/08 09:30:35;;;;;;;;;;;;;;;;;;5051273;28;1314;-77
2022/11/08 09:33:02;;;;;;;;;;;;;;;;;;5051824;28;877;-77
2022/11/08 09:35:28;;;;;;;;;;;;;;;;;;5052102;28;1466;-76
2022/11/08 09:37:55;;;;;;;;;;;;;;;;;;5052103;28;1095;-77
2022/11/08 09:40:23;;;;;;;;;;;;;;;;;;5051316;28;945;-77
2022/11/08 09:42:52;;;;;;;;;;;;;;;;;;5050144;28;1265;-77
2022/11/08 09:45:22;;;;;;;;;;;;;;;;;;5051296;28;1103;-77
2022/11/08 09:47:49;;;;;;;;;;;;;;;;;;5050774;28;1424;-77
2022/11/08 09:50:18;;;;;;;;;;;;;;;;;;5050571;28;1985;-78
2022/11/08 09:52:45;;;;;;;;;;;;;;;;;;5050656;28;1305;-75
2022/11/08 09:55:15;;;;;;;;;;;;;;;;;;5051429;28;1118;-77
2022/11/08 09:57:46;;;;;;;;;;;;;;;;;;5050008;28;1360;-76
2022/11/08 10:00:12;;;;;;;;;;;;;;;;;;5050874;28;905;-77
2022/11/08 10:02:40;;;;;;;;;;;;;;;;;;5050365;28;1471;-77
2022/11/08 10:05:08;;;;;;;;;;;;;;;;;;5050703;28;858;-77
2022/11/08 10:07:34;;;;;;;;;;;;;;;;;;5050153;28;1428;-77
2022/11/08 10:10:05;;;;;;;;;;;;;;;;;;5050287;28;1907;-77
2022/11/08 10:12:33;;;;;;;;;;;;;;;;;;5048637;28;1325;-77
2022/11/08 10:15:02;;;;;;;;;;;;;;;;;;5050811;28;933;-77
2022/11/08 10:17:40;;;;;;;;;;;;;;;;;;5050708;28;945;-78
2022/11/08 10:20:10;;;;;;;;;;;;;;;;;;5051436;28;1059;-77
2022/11/08 10:22:41;;;;;;;;;;;;;;;;;;5051103;28;2077;-77
2022/11/08 10:25:11;;;;;;;;;;;;;;;;;;5052770;28;1051;-77
2022/11/08 10:27:38;;;;;;;;;;;;;;;;;;5054382;28;1044;-77
2022/11/08 10:30:05;;;;;;;;;;;;;;;;;;5053826;28;1975;-77
2022/11/08 10:32:32;;;;;;;;;;;;;;;;;;5053252;28;1342;-77
2022/11/08 10:35:02;;;;;;;;;;;;;;;;;;5053438;28;1400;-78
2022/11/08 10:37:29;;;;;;;;;;;;;;;;;;5052916;28;1160;-77
2022/11/08 10:39:56;;;;;;;;;;;;;;;;;;5050186;28;1454;-77
2022/11/08 10:42:25;;;;;;;;;;;;;;;;;;5052640;28;1310;-77
2022/11/08 10:44:51;;;;;;;;;;;;;;;;;;5053176;28;1412;-77
2022/11/08 10:47:19;;;;;;;;;;;;;;;;;;5053644;28;949;-76
2022/11/08 10:49:45;;;;;;;;;;;;;;;;;;5053262;28;1985;-76
2022/11/08 10:52:17;;;;;;;;;;;;;;;;;;5051232;28;1392;-77
2022/11/08 10:54:45;;;;;;;;;;;;;;;;;;5052818;28;1468;-76
2022/11/08 10:57:13;;;;;;;;;;;;;;;;;;5053372;28;1067;-77
2022/11/08 10:59:39;;;;;;;;;;;;;;;;;;5053373;28;853;-77
2022/11/08 11:02:16;;;;;;;;;;;;;;;;;;5052354;28;1315;-77
2022/11/08 11:04:42;;;;;;;;;;;;;;;;;;5053235;28;878;-77
2022/11/08 11:07:24;;;;;;;;;;;;;;;;;;5053276;28;1075;-77
2022/11/08 11:09:52;;;;;;;;;;;;;;;;;;5052640;28;1922;-77
2022/11/08 11:12:18;;;;;;;;;;;;;;;;;;5052315;28;1325;-76
2022/11/08 11:14:45;;;;;;;;;;;;;;;;;;5053059;28;1110;-76
2022/11/08 11:17:14;;;;;;;;;;;;;;;;;;5051777;28;1259;-78
2022/11/08 11:19:41;;;;;;;;;;;;;;;;;;5052967;28;1051;-77
2022/11/08 11:22:08;;;;;;;;;;;;;;;;;;5052264;28;1338;-77
2022/11/08 11:24:34;;;;;;;;;;;;;;;;;;5052976;28;881;-77
2022/11/08 11:27:03;;;;;;;;;;;;;;;;;;5047598;28;1547;-77
2022/11/08 11:29:30;;;;;;;;;;;;;;;;;;5032951;28;1982;-77
2022/11/08 11:31:56;;;;;;;;;;;;;;;;;;5031941;28;1405;-77
2022/11/08 11:34:45;;;;;;;;;;;;;;;;;;5032716;28;1103;-75
2022/11/08 11:37:29;;;;;;;;;;;;;;;;;;5031022;28;1129;-75
2022/11/08 11:39:58;;;;;;;;;;;;;;;;;;5031427;28;854;-75
2022/11/08 11:42:27;;;;;;;;;;;;;;;;;;5031741;28;1336;-75
2022/11/08 11:47:29;;;;;;;;;;;;;;;;;;4966674;28;2115;-75
2022/11/08 11:49:55;;;;;;;;;;;;;;;;;;4969796;28;1911;-77
2022/11/08 11:52:21;;;;;;;;;;;;;;;;;;4970168;28;1200;-77
2022/11/08 11:54:48;;;;;;;;;;;;;;;;;;4970516;28;1317;-76
2022/11/08 11:57:14;;;;;;;;;;;;;;;;;;4951900;28;779;-76
2022/11/08 11:59:45;;;;;;;;;;;;;;;;;;4951438;28;1052;-76
2022/11/08 12:02:30;;;;;;;;;;;;;;;;;;4950953;28;1067;-73
2022/11/08 12:05:03;;;;;;;;;;;;;;;;;;4951516;28;1298;-75
2022/11/08 12:07:31;;;;;;;;;;;;;;;;;;4951559;29;914;-73
2022/11/08 12:10:02;;;;;;;;;;;;;;;;;;4951711;28;1910;-73
2022/11/08 12:12:33;;;;;;;;;;;;;;;;;;4931839;29;1338;-73
2022/11/08 12:15:02;;;;;;;;;;;;;;;;;;4932279;28;1309;-71
2022/11/08 12:17:37;;;;;;;;;;;;;;;;;;4930945;28;1255;-73
2022/11/08 12:20:07;;;;;;;;;;;;;;;;;;4932334;28;1320;-73
2022/11/08 12:22:39;;;;;;;;;;;;;;;;;;4931609;29;816;-73
2022/11/08 12:25:06;;;;;;;;;;;;;;;;;;4931681;28;1449;-74
2022/11/08 12:27:35;;;;;;;;;;;;;;;;;;4930814;28;1144;-73
2022/11/08 12:30:03;;;;;;;;;;;;;;;;;;4930888;28;1986;-73
2022/11/08 12:32:34;;;;;;;;;;;;;;;;;;4931555;29;843;-72
2022/11/08 12:35:04;;;;;;;;;;;;;;;;;;4933653;28;1584;-73
2022/11/08 12:37:33;;;;;;;;;;;;;;;;;;4949798;29;1328;-73
2022/11/08 12:40:00;;;;;;;;;;;;;;;;;;4965837;28;1292;-76
2022/11/08 12:42:33;;;;;;;;;;;;;;;;;;4935705;28;1467;-75
2022/11/08 12:45:18;;;;;;;;;;;;;;;;;;4931450;28;1403;-75
2022/11/08 12:47:46;;;;;;;;;;;;;;;;;;4930960;29;1048;-74
2022/11/08 12:50:16;;;;;;;;;;;;;;;;;;4931292;28;1933;-74
2022/11/08 12:52:46;;;;;;;;;;;;;;;;;;4930912;28;886;-76
2022/11/08 12:55:13;;;;;;;;;;;;;;;;;;4931664;28;1346;-74
2022/11/08 12:57:40;;;;;;;;;;;;;;;;;;4931882;28;1048;-73
2022/11/08 13:00:07;;;;;;;;;;;;;;;;;;4931509;28;1119;-75
2022/11/08 13:02:35;;;;;;;;;;;;;;;;;;4938870;28;1421;-72
2022/11/08 13:05:04;;;;;;;;;;;;;;;;;;4948950;28;1415;-73
2022/11/08 13:07:33;;;;;;;;;;;;;;;;;;4950557;28;926;-73
2022/11/08 13:10:00;;;;;;;;;;;;;;;;;;4950434;29;1974;-74
2022/11/08 13:12:31;;;;;;;;;;;;;;;;;;4940493;29;1461;-74
2022/11/08 13:14:58;;;;;;;;;;;;;;;;;;4931204;28;1427;-74
2022/11/08 13:17:25;;;;;;;;;;;;;;;;;;4931323;28;1064;-73
2022/11/08 13:19:52;;;;;;;;;;;;;;;;;;4931349;28;1107;-73
2022/11/08 13:22:39;;;;;;;;;;;;;;;;;;4937255;28;1413;-74
2022/11/08 13:25:07;;;;;;;;;;;;;;;;;;4950046;28;1298;-77
2022/11/08 13:27:34;;;;;;;;;;;;;;;;;;4965422;28;1328;-75
2022/11/08 13:30:18;;;;;;;;;;;;;;;;;;4949749;29;1914;-74
2022/11/08 13:32:44;;;;;;;;;;;;;;;;;;4942550;28;1361;-73
2022/11/08 13:35:13;;;;;;;;;;;;;;;;;;4931168;28;1315;-74
2022/11/08 13:37:42;;;;;;;;;;;;;;;;;;4929823;28;1222;-74
2022/11/08 13:40:16;;;;;;;;;;;;;;;;;;4930899;28;909;-73
2022/11/08 13:42:56;;;;;;;;;;;;;;;;;;4943640;29;1464;-74
2022/11/08 13:45:27;;;;;;;;;;;;;;;;;;4949900;28;1409;-73
2022/11/08 13:47:57;;;;;;;;;;;;;;;;;;4948800;29;957;-73
2022/11/08 13:50:44;;;;;;;;;;;;;;;;;;4949772;29;1966;-74
2022/11/08 13:53:11;;;;;;;;;;;;;;;;;;4947580;29;1123;-75
2022/11/08 13:55:45;;;;;;;;;;;;;;;;;;4949793;28;1428;-74
2022/11/08 13:58:26;;;;;;;;;;;;;;;;;;4932192;28;1330;-74
2022/11/08 14:00:52;;;;;;;;;;;;;;;;;;4933542;28;2093;-74
2022/11/08 14:03:43;;;;;;;;;;;;;;;;;;4933824;28;807;-74
2022/11/08 14:06:13;;;;;;;;;;;;;;;;;;4934970;28;1691;-74
2022/11/08 14:08:40;;;;;;;;;;;;;;;;;;4940357;28;1413;-73
2022/11/08 14:11:21;;;;;;;;;;;;;;;;;;4953039;29;1978;-74
2022/11/08 14:13:56;;;;;;;;;;;;;;;;;;4953178;29;1111;-75
2022/11/08 14:16:23;;;;;;;;;;;;;;;;;;4952931;28;1307;-75
2022/11/08 14:18:49;;;;;;;;;;;;;;;;;;4944737;28;1278;-76
2022/11/08 14:21:16;;;;;;;;;;;;;;;;;;4933613;28;723;-74
2022/11/08 14:23:42;;;;;;;;;;;;;;;;;;4933843;29;1072;-75
2022/11/08 14:26:11;;;;;;;;;;;;;;;;;;4950336;28;1601;-76
2022/11/08 14:28:39;;;;;;;;;;;;;;;;;;4952967;29;1044;-74
2022/11/08 14:31:05;;;;;;;;;;;;;;;;;;4952776;29;1928;-75
2022/11/08 14:33:32;;;;;;;;;;;;;;;;;;4952013;29;831;-75
2022/11/08 14:35:59;;;;;;;;;;;;;;;;;;4951085;28;1330;-75
2022/11/08 14:38:25;;;;;;;;;;;;;;;;;;4952921;28;834;-75
2022/11/08 14:40:52;;;;;;;;;;;;;;;;;;4951668;29;1396;-75
2022/11/08 14:43:18;;;;;;;;;;;;;;;;;;4940178;29;1519;-75
2022/11/08 14:45:45;;;;;;;;;;;;;;;;;;4948744;28;1394;-75
2022/11/08 14:48:12;;;;;;;;;;;;;;;;;;4952466;29;1001;-74
2022/11/08 14:50:38;;;;;;;;;;;;;;;;;;4952597;29;1914;-74
2022/11/08 14:53:29;;;;;;;;;;;;;;;;;;4951624;28;741;-75
2022/11/08 14:55:56;;;;;;;;;;;;;;;;;;4960989;28;1545;-74
2022/11/08 14:58:22;;;;;;;;;;;;;;;;;;4952148;28;1114;-76
2022/11/08 15:00:50;;;;;;;;;;;;;;;;;;4952195;28;1516;-75
2022/11/08 15:03:16;;;;;;;;;;;;;;;;;;4951056;29;1107;-76
2022/11/08 15:05:44;;;;;;;;;;;;;;;;;;4933809;28;1414;-75
2022/11/08 15:08:16;;;;;;;;;;;;;;;;;;4933077;28;1134;-73
2022/11/08 15:10:51;;;;;;;;;;;;;;;;;;4932653;28;1973;-75
2022/11/08 15:13:17;;;;;;;;;;;;;;;;;;4931684;28;1421;-74
2022/11/08 15:15:47;;;;;;;;;;;;;;;;;;4951787;28;1437;-75
2022/11/08 15:18:16;;;;;;;;;;;;;;;;;;4952123;29;921;-75
2022/11/08 15:20:52;;;;;;;;;;;;;;;;;;4950980;29;1218;-74
2022/11/08 15:23:22;;;;;;;;;;;;;;;;;;4948317;29;1425;-75
2022/11/08 15:25:54;;;;;;;;;;;;;;;;;;4932752;28;1337;-74
2022/11/08 15:28:21;;;;;;;;;;;;;;;;;;4932722;28;1299;-75
2022/11/08 15:30:47;;;;;;;;;;;;;;;;;;4932923;28;1978;-75
2022/11/08 15:33:20;;;;;;;;;;;;;;;;;;4933022;28;1448;-74
2022/11/08 15:35:46;;;;;;;;;;;;;;;;;;4952386;28;1397;-77
2022/11/08 15:38:20;;;;;;;;;;;;;;;;;;4952240;28;870;-76
2022/11/08 15:40:48;;;;;;;;;;;;;;;;;;4952356;28;1048;-73
2022/11/08 15:43:23;;;;;;;;;;;;;;;;;;4947798;28;1353;-75
2022/11/08 15:45:52;;;;;;;;;;;;;;;;;;4932773;28;1320;-75
2022/11/08 15:48:21;;;;;;;;;;;;;;;;;;4932662;28;1045;-75
2022/11/08 15:50:47;;;;;;;;;;;;;;;;;;4932874;28;1966;-75
2022/11/08 15:53:14;;;;;;;;;;;;;;;;;;4988382;28;2856;-76
2022/11/08 15:55:42;;;;;;;;;;;;;;;;;;4978856;28;1405;-75
2022/11/08 15:58:10;;;;;;;;;;;;;;;;;;4951547;28;854;-74
2022/11/08 16:00:37;;;;;;;;;;;;;;;;;;4951082;28;1564;-75
2022/11/08 16:03:03;;;;;;;;;;;;;;;;;;4947671;28;1231;-74
2022/11/08 16:05:31;;;;;;;;;;;;;;;;;;4951543;28;1348;-75
2022/11/08 16:07:58;;;;;;;;;;;;;;;;;;4951481;29;1403;-74
2022/11/08 16:10:25;;;;;;;;;;;;;;;;;;4950120;29;1915;-74
2022/11/08 16:12:52;;;;;;;;;;;;;;;;;;4949778;28;1417;-75
2022/11/08 16:15:20;;;;;;;;;;;;;;;;;;4951233;28;1405;-75
2022/11/08 16:17:46;;;;;;;;;;;;;;;;;;4951947;28;704;-74
2022/11/08 16:20:20;;;;;;;;;;;;;;;;;;4950192;29;1473;-73
2022/11/08 16:22:47;;;;;;;;;;;;;;;;;;4949941;28;1412;-76
2022/11/08 16:25:13;;;;;;;;;;;;;;;;;;4951887;28;1314;-75
2022/11/08 16:27:40;;;;;;;;;;;;;;;;;;4951518;29;938;-74
2022/11/08 16:30:09;;;;;;;;;;;;;;;;;;4950142;29;1266;-75
2022/11/08 16:32:35;;;;;;;;;;;;;;;;;;4946842;29;1963;-75
2022/11/08 16:35:01;;;;;;;;;;;;;;;;;;4930616;29;1323;-74
2022/11/08 16:37:27;;;;;;;;;;;;;;;;;;4932191;28;1057;-75
2022/11/08 16:39:55;;;;;;;;;;;;;;;;;;4931992;28;934;-74
2022/11/08 16:42:21;;;;;;;;;;;;;;;;;;4932576;28;1527;-74
2022/11/08 16:44:47;;;;;;;;;;;;;;;;;;4931614;29;930;-74
2022/11/08 16:47:15;;;;;;;;;;;;;;;;;;4932337;28;833;-74
2022/11/08 16:49:41;;;;;;;;;;;;;;;;;;4932655;28;1106;-74
2022/11/08 16:52:08;;;;;;;;;;;;;;;;;;4931853;29;1910;-74
2022/11/08 16:54:34;;;;;;;;;;;;;;;;;;4950913;28;948;-74
2022/11/08 16:57:02;;;;;;;;;;;;;;;;;;4951141;28;1334;-74
2022/11/08 16:59:28;;;;;;;;;;;;;;;;;;4965989;28;1159;-75
2022/11/08 17:01:54;;;;;;;;;;;;;;;;;;4949157;29;1481;-73
2022/11/08 17:04:20;;;;;;;;;;;;;;;;;;4950918;29;926;-74
2022/11/08 17:06:47;;;;;;;;;;;;;;;;;;4951847;28;1401;-75
2022/11/08 17:09:13;;;;;;;;;;;;;;;;;;4951172;28;1036;-75
2022/11/08 17:11:39;;;;;;;;;;;;;;;;;;4949161;28;1972;-74
2022/11/08 17:14:07;;;;;;;;;;;;;;;;;;4931385;28;1048;-75
2022/11/08 17:16:33;;;;;;;;;;;;;;;;;;4930323;28;1397;-74
2022/11/08 17:19:00;;;;;;;;;;;;;;;;;;4930225;28;1372;-74
2022/11/08 17:21:26;;;;;;;;;;;;;;;;;;4930684;28;1314;-75
2022/11/08 17:23:52;;;;;;;;;;;;;;;;;;4949978;29;1500;-72
2022/11/08 17:26:18;;;;;;;;;;;;;;;;;;4950291;28;1372;-74
2022/11/08 17:28:44;;;;;;;;;;;;;;;;;;4949390;29;1320;-75
2022/11/08 17:31:13;;;;;;;;;;;;;;;;;;4949980;28;1978;-75
2022/11/08 17:33:39;;;;;;;;;;;;;;;;;;4950131;28;755;-74
2022/11/08 17:36:06;;;;;;;;;;;;;;;;;;4955536;29;1481;-74